sensor_id;sensor_type;location;lat;lon;timestamp;P1;durP1;ratioP1;P2;durP2;ratioP2
37701;SDS011;23548;51.196;6.838;2023-07-29T00:00:20;9.55;;;4.32;;
37701;SDS011;23548;51.196;6.838;2023-07-29T00:02:45;6.20;;;4.22;;
37701;SDS011;23548;51.196;6.838;2023-07-29T00:05:11;5.20;;;4.38;;
37701;SDS011;23548;51.196;6.838;2023-07-29T00:07:37;10.65;;;4.72;;
37701;SDS011;23548;51.196;6.838;2023-07-29T00:10:03;7.38;;;4.80;;
37701;SDS011;23548;51.196;6.838;2023-07-29T00:12:29;8.32;;;4.72;;
37701;SDS011;23548;51.196;6.838;2023-07-29T00:14:55;5.82;;;4.97;;
37701;SDS011;23548;51.196;6.838;2023-07-29T00:17:21;8.57;;;4.65;;
37701;SDS011;23548;51.196;6.838;2023-07-29T00:19:47;10.95;;;5.07;;
37701;SDS011;23548;51.196;6.838;2023-07-29T00:22:12;7.80;;;5.45;;
37701;SDS011;23548;51.196;6.838;2023-07-29T00:24:39;8.27;;;5.28;;
37701;SDS011;23548;51.196;6.838;2023-07-29T00:27:05;18.00;;;9.90;;
37701;SDS011;23548;51.196;6.838;2023-07-29T00:29:31;8.98;;;6.40;;
37701;SDS011;23548;51.196;6.838;2023-07-29T00:31:57;10.27;;;7.30;;
37701;SDS011;23548;51.196;6.838;2023-07-29T00:34:22;10.00;;;7.63;;
37701;SDS011;23548;51.196;6.838;2023-07-29T00:36:48;11.05;;;7.70;;
37701;SDS011;23548;51.196;6.838;2023-07-29T00:39:14;10.88;;;7.50;;
37701;SDS011;23548;51.196;6.838;2023-07-29T00:41:39;9.50;;;7.32;;
37701;SDS011;23548;51.196;6.838;2023-07-29T00:44:05;10.77;;;7.70;;
37701;SDS011;23548;51.196;6.838;2023-07-29T00:46:32;10.38;;;7.35;;
37701;SDS011;23548;51.196;6.838;2023-07-29T00:48:59;11.48;;;7.35;;
37701;SDS011;23548;51.196;6.838;2023-07-29T00:51:25;16.55;;;7.65;;
37701;SDS011;23548;51.196;6.838;2023-07-29T00:53:51;13.95;;;8.05;;
37701;SDS011;23548;51.196;6.838;2023-07-29T00:56:17;10.48;;;8.18;;
37701;SDS011;23548;51.196;6.838;2023-07-29T00:58:43;7.95;;;6.88;;
37701;SDS011;23548;51.196;6.838;2023-07-29T01:01:09;10.40;;;7.13;;
37701;SDS011;23548;51.196;6.838;2023-07-29T01:03:35;11.93;;;7.68;;
37701;SDS011;23548;51.196;6.838;2023-07-29T01:06:04;9.60;;;8.48;;
37701;SDS011;23548;51.196;6.838;2023-07-29T01:09:02;7.90;;;6.85;;
37701;SDS011;23548;51.196;6.838;2023-07-29T01:14:25;9.10;;;7.75;;
37701;SDS011;23548;51.196;6.838;2023-07-29T01:17:07;13.95;;;8.27;;
37701;SDS011;23548;51.196;6.838;2023-07-29T01:22:45;8.82;;;7.55;;
37701;SDS011;23548;51.196;6.838;2023-07-29T01:25:12;11.73;;;7.47;;
37701;SDS011;23548;51.196;6.838;2023-07-29T01:27:39;8.23;;;7.43;;
37701;SDS011;23548;51.196;6.838;2023-07-29T01:30:05;20.05;;;8.45;;
37701;SDS011;23548;51.196;6.838;2023-07-29T01:32:36;14.07;;;8.70;;
37701;SDS011;23548;51.196;6.838;2023-07-29T01:35:09;10.70;;;7.28;;
37701;SDS011;23548;51.196;6.838;2023-07-29T01:37:42;10.80;;;7.35;;
37701;SDS011;23548;51.196;6.838;2023-07-29T01:43:32;7.55;;;6.85;;
37701;SDS011;23548;51.196;6.838;2023-07-29T01:45:58;12.30;;;6.95;;
37701;SDS011;23548;51.196;6.838;2023-07-29T01:48:26;12.00;;;6.60;;
37701;SDS011;23548;51.196;6.838;2023-07-29T01:50:54;12.68;;;7.28;;
37701;SDS011;23548;51.196;6.838;2023-07-29T01:53:20;9.40;;;7.03;;
37701;SDS011;23548;51.196;6.838;2023-07-29T01:55:45;13.52;;;6.43;;
37701;SDS011;23548;51.196;6.838;2023-07-29T01:58:11;7.18;;;6.50;;
37701;SDS011;23548;51.196;6.838;2023-07-29T02:00:37;8.00;;;7.13;;
37701;SDS011;23548;51.196;6.838;2023-07-29T02:03:03;7.47;;;6.28;;
37701;SDS011;23548;51.196;6.838;2023-07-29T02:05:29;10.90;;;6.22;;
37701;SDS011;23548;51.196;6.838;2023-07-29T02:07:55;7.65;;;6.13;;
37701;SDS011;23548;51.196;6.838;2023-07-29T02:10:20;7.50;;;6.15;;
37701;SDS011;23548;51.196;6.838;2023-07-29T02:12:46;11.38;;;6.78;;
37701;SDS011;23548;51.196;6.838;2023-07-29T02:15:12;11.52;;;6.85;;
37701;SDS011;23548;51.196;6.838;2023-07-29T02:17:39;7.65;;;6.22;;
37701;SDS011;23548;51.196;6.838;2023-07-29T02:20:06;10.32;;;6.90;;
37701;SDS011;23548;51.196;6.838;2023-07-29T02:22:32;12.63;;;7.15;;
37701;SDS011;23548;51.196;6.838;2023-07-29T02:24:58;10.35;;;7.15;;
37701;SDS011;23548;51.196;6.838;2023-07-29T02:27:24;13.38;;;7.32;;
37701;SDS011;23548;51.196;6.838;2023-07-29T02:29:52;11.43;;;6.90;;
37701;SDS011;23548;51.196;6.838;2023-07-29T02:32:18;9.25;;;7.68;;
37701;SDS011;23548;51.196;6.838;2023-07-29T02:34:44;12.60;;;7.80;;
37701;SDS011;23548;51.196;6.838;2023-07-29T02:37:10;14.32;;;6.25;;
37701;SDS011;23548;51.196;6.838;2023-07-29T02:39:36;6.82;;;5.38;;
37701;SDS011;23548;51.196;6.838;2023-07-29T02:42:02;7.00;;;5.25;;
37701;SDS011;23548;51.196;6.838;2023-07-29T02:44:28;7.85;;;5.43;;
37701;SDS011;23548;51.196;6.838;2023-07-29T02:46:54;7.07;;;5.03;;
37701;SDS011;23548;51.196;6.838;2023-07-29T02:49:21;8.18;;;5.30;;
37701;SDS011;23548;51.196;6.838;2023-07-29T02:51:49;9.98;;;5.32;;
37701;SDS011;23548;51.196;6.838;2023-07-29T02:54:15;8.57;;;5.10;;
37701;SDS011;23548;51.196;6.838;2023-07-29T02:56:41;9.15;;;5.07;;
37701;SDS011;23548;51.196;6.838;2023-07-29T02:59:07;8.27;;;5.32;;
37701;SDS011;23548;51.196;6.838;2023-07-29T03:01:32;7.53;;;5.03;;
37701;SDS011;23548;51.196;6.838;2023-07-29T03:03:58;6.97;;;4.70;;
37701;SDS011;23548;51.196;6.838;2023-07-29T03:06:24;8.88;;;5.10;;
37701;SDS011;23548;51.196;6.838;2023-07-29T03:08:50;9.02;;;5.63;;
37701;SDS011;23548;51.196;6.838;2023-07-29T03:11:16;6.70;;;4.97;;
37701;SDS011;23548;51.196;6.838;2023-07-29T03:13:42;5.95;;;5.35;;
37701;SDS011;23548;51.196;6.838;2023-07-29T03:18:36;7.30;;;5.55;;
37701;SDS011;23548;51.196;6.838;2023-07-29T03:21:02;7.40;;;5.63;;
37701;SDS011;23548;51.196;6.838;2023-07-29T03:23:28;8.15;;;5.35;;
37701;SDS011;23548;51.196;6.838;2023-07-29T03:25:56;6.85;;;5.25;;
37701;SDS011;23548;51.196;6.838;2023-07-29T03:28:27;9.93;;;5.03;;
37701;SDS011;23548;51.196;6.838;2023-07-29T03:30:54;6.90;;;5.45;;
37701;SDS011;23548;51.196;6.838;2023-07-29T03:33:21;10.02;;;4.80;;
37701;SDS011;23548;51.196;6.838;2023-07-29T03:35:47;7.35;;;5.47;;
37701;SDS011;23548;51.196;6.838;2023-07-29T03:38:13;7.35;;;5.57;;
37701;SDS011;23548;51.196;6.838;2023-07-29T03:40:39;8.27;;;5.28;;
37701;SDS011;23548;51.196;6.838;2023-07-29T03:43:06;8.18;;;6.15;;
37701;SDS011;23548;51.196;6.838;2023-07-29T03:45:32;10.23;;;7.22;;
37701;SDS011;23548;51.196;6.838;2023-07-29T03:47:58;7.63;;;5.82;;
37701;SDS011;23548;51.196;6.838;2023-07-29T03:50:24;8.40;;;6.40;;
37701;SDS011;23548;51.196;6.838;2023-07-29T03:52:50;8.00;;;7.00;;
37701;SDS011;23548;51.196;6.838;2023-07-29T03:55:15;9.93;;;6.80;;
37701;SDS011;23548;51.196;6.838;2023-07-29T03:57:41;7.78;;;5.70;;
37701;SDS011;23548;51.196;6.838;2023-07-29T04:00:07;9.10;;;5.60;;
37701;SDS011;23548;51.196;6.838;2023-07-29T04:02:34;5.93;;;4.80;;
37701;SDS011;23548;51.196;6.838;2023-07-29T04:05:02;7.15;;;5.30;;
37701;SDS011;23548;51.196;6.838;2023-07-29T04:07:29;8.43;;;4.68;;
37701;SDS011;23548;51.196;6.838;2023-07-29T04:09:55;8.43;;;4.72;;
37701;SDS011;23548;51.196;6.838;2023-07-29T04:12:22;7.00;;;4.53;;
37701;SDS011;23548;51.196;6.838;2023-07-29T04:14:48;6.72;;;4.82;;
37701;SDS011;23548;51.196;6.838;2023-07-29T04:17:14;9.32;;;5.07;;
37701;SDS011;23548;51.196;6.838;2023-07-29T04:19:40;11.07;;;5.45;;
37701;SDS011;23548;51.196;6.838;2023-07-29T04:22:06;8.68;;;4.78;;
37701;SDS011;23548;51.196;6.838;2023-07-29T04:24:31;6.43;;;4.97;;
37701;SDS011;23548;51.196;6.838;2023-07-29T04:26:57;10.20;;;6.15;;
37701;SDS011;23548;51.196;6.838;2023-07-29T04:29:23;9.68;;;6.32;;
37701;SDS011;23548;51.196;6.838;2023-07-29T04:31:52;12.15;;;6.40;;
37701;SDS011;23548;51.196;6.838;2023-07-29T04:34:18;9.90;;;6.25;;
37701;SDS011;23548;51.196;6.838;2023-07-29T04:36:47;10.48;;;5.90;;
37701;SDS011;23548;51.196;6.838;2023-07-29T04:39:13;6.53;;;5.90;;
37701;SDS011;23548;51.196;6.838;2023-07-29T04:41:39;9.30;;;6.15;;
37701;SDS011;23548;51.196;6.838;2023-07-29T04:44:05;13.32;;;6.20;;
37701;SDS011;23548;51.196;6.838;2023-07-29T04:46:31;6.97;;;6.00;;
37701;SDS011;23548;51.196;6.838;2023-07-29T04:48:56;7.07;;;5.68;;
37701;SDS011;23548;51.196;6.838;2023-07-29T04:51:23;8.40;;;5.75;;
37701;SDS011;23548;51.196;6.838;2023-07-29T04:53:48;6.70;;;5.57;;
37701;SDS011;23548;51.196;6.838;2023-07-29T04:56:14;8.52;;;5.50;;
37701;SDS011;23548;51.196;6.838;2023-07-29T04:58:40;6.25;;;4.95;;
37701;SDS011;23548;51.196;6.838;2023-07-29T05:01:05;7.68;;;4.85;;
37701;SDS011;23548;51.196;6.838;2023-07-29T05:03:31;7.55;;;4.63;;
37701;SDS011;23548;51.196;6.838;2023-07-29T05:05:57;6.13;;;4.70;;
37701;SDS011;23548;51.196;6.838;2023-07-29T05:08:25;6.65;;;4.63;;
37701;SDS011;23548;51.196;6.838;2023-07-29T05:10:54;8.10;;;4.78;;
37701;SDS011;23548;51.196;6.838;2023-07-29T05:13:21;6.85;;;5.00;;
37701;SDS011;23548;51.196;6.838;2023-07-29T05:15:47;6.28;;;5.07;;
37701;SDS011;23548;51.196;6.838;2023-07-29T05:18:14;5.53;;;4.85;;
37701;SDS011;23548;51.196;6.838;2023-07-29T05:20:40;5.28;;;4.68;;
37701;SDS011;23548;51.196;6.838;2023-07-29T05:23:06;6.55;;;4.82;;
37701;SDS011;23548;51.196;6.838;2023-07-29T05:25:32;8.05;;;5.40;;
37701;SDS011;23548;51.196;6.838;2023-07-29T05:28:01;7.13;;;4.50;;
37701;SDS011;23548;51.196;6.838;2023-07-29T05:30:28;9.80;;;4.88;;
37701;SDS011;23548;51.196;6.838;2023-07-29T05:32:57;5.55;;;4.85;;
37701;SDS011;23548;51.196;6.838;2023-07-29T05:35:23;9.88;;;5.38;;
37701;SDS011;23548;51.196;6.838;2023-07-29T05:37:49;8.15;;;5.18;;
37701;SDS011;23548;51.196;6.838;2023-07-29T05:40:15;8.02;;;5.65;;
37701;SDS011;23548;51.196;6.838;2023-07-29T05:42:41;11.35;;;6.00;;
37701;SDS011;23548;51.196;6.838;2023-07-29T05:45:07;7.95;;;5.55;;
37701;SDS011;23548;51.196;6.838;2023-07-29T05:47:33;5.90;;;5.32;;
37701;SDS011;23548;51.196;6.838;2023-07-29T05:49:59;7.22;;;5.95;;
37701;SDS011;23548;51.196;6.838;2023-07-29T05:52:27;7.85;;;5.22;;
37701;SDS011;23548;51.196;6.838;2023-07-29T05:54:53;8.80;;;5.32;;
37701;SDS011;23548;51.196;6.838;2023-07-29T05:57:18;8.98;;;4.75;;
37701;SDS011;23548;51.196;6.838;2023-07-29T05:59:44;8.85;;;4.97;;
37701;SDS011;23548;51.196;6.838;2023-07-29T06:02:10;7.88;;;4.90;;
37701;SDS011;23548;51.196;6.838;2023-07-29T06:04:36;5.75;;;4.68;;
37701;SDS011;23548;51.196;6.838;2023-07-29T06:07:02;7.57;;;4.82;;
37701;SDS011;23548;51.196;6.838;2023-07-29T06:09:28;7.18;;;5.25;;
37701;SDS011;23548;51.196;6.838;2023-07-29T06:11:53;7.10;;;5.32;;
37701;SDS011;23548;51.196;6.838;2023-07-29T06:14:19;10.00;;;4.93;;
37701;SDS011;23548;51.196;6.838;2023-07-29T06:16:45;6.65;;;4.65;;
37701;SDS011;23548;51.196;6.838;2023-07-29T06:19:11;7.75;;;4.72;;
37701;SDS011;23548;51.196;6.838;2023-07-29T06:21:38;5.60;;;4.15;;
37701;SDS011;23548;51.196;6.838;2023-07-29T06:24:04;5.32;;;4.18;;
37701;SDS011;23548;51.196;6.838;2023-07-29T06:26:29;9.05;;;3.70;;
37701;SDS011;23548;51.196;6.838;2023-07-29T06:28:55;3.97;;;3.08;;
37701;SDS011;23548;51.196;6.838;2023-07-29T06:31:22;3.72;;;3.03;;
37701;SDS011;23548;51.196;6.838;2023-07-29T06:33:47;4.47;;;3.10;;
37701;SDS011;23548;51.196;6.838;2023-07-29T06:36:13;4.47;;;2.60;;
37701;SDS011;23548;51.196;6.838;2023-07-29T06:38:39;3.25;;;2.60;;
37701;SDS011;23548;51.196;6.838;2023-07-29T06:41:06;3.25;;;2.90;;
37701;SDS011;23548;51.196;6.838;2023-07-29T06:43:32;4.40;;;2.40;;
37701;SDS011;23548;51.196;6.838;2023-07-29T06:45:57;2.53;;;2.15;;
37701;SDS011;23548;51.196;6.838;2023-07-29T06:48:23;3.88;;;2.42;;
37701;SDS011;23548;51.196;6.838;2023-07-29T06:50:49;2.80;;;2.30;;
37701;SDS011;23548;51.196;6.838;2023-07-29T06:53:15;2.65;;;2.30;;
37701;SDS011;23548;51.196;6.838;2023-07-29T06:55:41;3.58;;;2.20;;
37701;SDS011;23548;51.196;6.838;2023-07-29T06:58:08;3.35;;;2.40;;
37701;SDS011;23548;51.196;6.838;2023-07-29T07:00:34;4.03;;;2.47;;
37701;SDS011;23548;51.196;6.838;2023-07-29T07:03:00;3.65;;;2.70;;
37701;SDS011;23548;51.196;6.838;2023-07-29T07:05:26;3.45;;;2.28;;
37701;SDS011;23548;51.196;6.838;2023-07-29T07:07:52;4.40;;;2.83;;
37701;SDS011;23548;51.196;6.838;2023-07-29T07:10:17;5.45;;;3.38;;
37701;SDS011;23548;51.196;6.838;2023-07-29T07:12:44;4.20;;;2.90;;
37701;SDS011;23548;51.196;6.838;2023-07-29T07:15:10;4.05;;;2.80;;
37701;SDS011;23548;51.196;6.838;2023-07-29T07:17:35;4.63;;;2.55;;
37701;SDS011;23548;51.196;6.838;2023-07-29T07:20:04;3.75;;;2.70;;
37701;SDS011;23548;51.196;6.838;2023-07-29T07:22:30;3.40;;;2.78;;
37701;SDS011;23548;51.196;6.838;2023-07-29T07:24:56;6.07;;;2.95;;
37701;SDS011;23548;51.196;6.838;2023-07-29T07:27:22;3.00;;;2.72;;
37701;SDS011;23548;51.196;6.838;2023-07-29T07:29:48;5.10;;;3.03;;
37701;SDS011;23548;51.196;6.838;2023-07-29T07:32:14;3.83;;;2.80;;
37701;SDS011;23548;51.196;6.838;2023-07-29T07:34:40;7.63;;;2.72;;
37701;SDS011;23548;51.196;6.838;2023-07-29T07:37:05;4.13;;;2.40;;
37701;SDS011;23548;51.196;6.838;2023-07-29T07:39:31;2.13;;;1.92;;
37701;SDS011;23548;51.196;6.838;2023-07-29T07:41:57;4.38;;;2.55;;
37701;SDS011;23548;51.196;6.838;2023-07-29T07:44:23;4.97;;;2.30;;
37701;SDS011;23548;51.196;6.838;2023-07-29T07:46:51;3.58;;;2.60;;
37701;SDS011;23548;51.196;6.838;2023-07-29T07:49:18;3.85;;;2.30;;
37701;SDS011;23548;51.196;6.838;2023-07-29T07:51:44;3.78;;;2.47;;
37701;SDS011;23548;51.196;6.838;2023-07-29T07:54:09;6.95;;;2.72;;
37701;SDS011;23548;51.196;6.838;2023-07-29T07:56:35;5.10;;;2.20;;
37701;SDS011;23548;51.196;6.838;2023-07-29T07:59:01;2.83;;;2.22;;
37701;SDS011;23548;51.196;6.838;2023-07-29T08:01:33;2.42;;;2.13;;
37701;SDS011;23548;51.196;6.838;2023-07-29T08:04:00;4.75;;;1.92;;
37701;SDS011;23548;51.196;6.838;2023-07-29T08:06:26;3.05;;;1.90;;
37701;SDS011;23548;51.196;6.838;2023-07-29T08:08:52;1.80;;;1.70;;
37701;SDS011;23548;51.196;6.838;2023-07-29T08:11:18;4.53;;;1.50;;
37701;SDS011;23548;51.196;6.838;2023-07-29T08:13:43;1.60;;;1.48;;
37701;SDS011;23548;51.196;6.838;2023-07-29T08:16:09;3.00;;;2.05;;
37701;SDS011;23548;51.196;6.838;2023-07-29T08:18:37;2.08;;;1.80;;
37701;SDS011;23548;51.196;6.838;2023-07-29T08:21:03;2.42;;;1.70;;
37701;SDS011;23548;51.196;6.838;2023-07-29T08:23:29;2.10;;;1.83;;
37701;SDS011;23548;51.196;6.838;2023-07-29T08:25:57;1.73;;;1.60;;
37701;SDS011;23548;51.196;6.838;2023-07-29T08:28:27;2.67;;;1.50;;
37701;SDS011;23548;51.196;6.838;2023-07-29T08:30:54;2.35;;;1.40;;
37701;SDS011;23548;51.196;6.838;2023-07-29T08:33:20;1.77;;;1.35;;
37701;SDS011;23548;51.196;6.838;2023-07-29T08:35:46;2.60;;;1.20;;
37701;SDS011;23548;51.196;6.838;2023-07-29T08:38:12;1.35;;;1.20;;
37701;SDS011;23548;51.196;6.838;2023-07-29T08:40:39;1.30;;;1.10;;
37701;SDS011;23548;51.196;6.838;2023-07-29T08:43:10;2.20;;;1.35;;
37701;SDS011;23548;51.196;6.838;2023-07-29T08:45:37;1.40;;;1.10;;
37701;SDS011;23548;51.196;6.838;2023-07-29T08:48:07;2.42;;;1.17;;
37701;SDS011;23548;51.196;6.838;2023-07-29T08:50:35;1.20;;;1.10;;
37701;SDS011;23548;51.196;6.838;2023-07-29T08:53:03;2.78;;;1.23;;
37701;SDS011;23548;51.196;6.838;2023-07-29T08:55:30;1.10;;;1.00;;
37701;SDS011;23548;51.196;6.838;2023-07-29T08:57:57;1.63;;;1.30;;
37701;SDS011;23548;51.196;6.838;2023-07-29T09:00:25;1.80;;;1.15;;
37701;SDS011;23548;51.196;6.838;2023-07-29T09:02:51;2.85;;;1.10;;
37701;SDS011;23548;51.196;6.838;2023-07-29T09:05:17;2.67;;;1.30;;
37701;SDS011;23548;51.196;6.838;2023-07-29T09:07:44;2.13;;;1.20;;
37701;SDS011;23548;51.196;6.838;2023-07-29T09:10:11;2.00;;;1.60;;
37701;SDS011;23548;51.196;6.838;2023-07-29T09:12:39;2.38;;;1.20;;
37701;SDS011;23548;51.196;6.838;2023-07-29T09:15:05;3.13;;;1.13;;
37701;SDS011;23548;51.196;6.838;2023-07-29T09:17:35;1.52;;;1.05;;
37701;SDS011;23548;51.196;6.838;2023-07-29T09:20:00;3.40;;;1.40;;
37701;SDS011;23548;51.196;6.838;2023-07-29T09:22:26;2.97;;;1.60;;
37701;SDS011;23548;51.196;6.838;2023-07-29T09:24:53;1.67;;;1.35;;
37701;SDS011;23548;51.196;6.838;2023-07-29T09:27:25;3.05;;;1.15;;
37701;SDS011;23548;51.196;6.838;2023-07-29T09:29:52;2.47;;;1.08;;
37701;SDS011;23548;51.196;6.838;2023-07-29T09:32:20;2.22;;;1.00;;
37701;SDS011;23548;51.196;6.838;2023-07-29T09:34:47;1.55;;;0.90;;
37701;SDS011;23548;51.196;6.838;2023-07-29T09:37:22;3.58;;;1.05;;
37701;SDS011;23548;51.196;6.838;2023-07-29T09:39:49;2.15;;;1.40;;
37701;SDS011;23548;51.196;6.838;2023-07-29T09:42:19;3.58;;;2.45;;
37701;SDS011;23548;51.196;6.838;2023-07-29T09:44:45;3.25;;;1.20;;
37701;SDS011;23548;51.196;6.838;2023-07-29T09:47:18;3.40;;;1.38;;
37701;SDS011;23548;51.196;6.838;2023-07-29T09:49:45;4.43;;;1.60;;
37701;SDS011;23548;51.196;6.838;2023-07-29T09:52:11;2.42;;;1.45;;
37701;SDS011;23548;51.196;6.838;2023-07-29T09:54:39;4.55;;;3.47;;
37701;SDS011;23548;51.196;6.838;2023-07-29T09:57:06;2.45;;;1.60;;
37701;SDS011;23548;51.196;6.838;2023-07-29T09:59:35;2.67;;;1.58;;
37701;SDS011;23548;51.196;6.838;2023-07-29T10:02:01;4.40;;;1.40;;
37701;SDS011;23548;51.196;6.838;2023-07-29T10:04:27;4.53;;;1.75;;
37701;SDS011;23548;51.196;6.838;2023-07-29T10:06:55;4.18;;;2.08;;
37701;SDS011;23548;51.196;6.838;2023-07-29T10:09:22;3.55;;;1.90;;
37701;SDS011;23548;51.196;6.838;2023-07-29T10:11:49;4.05;;;1.50;;
37701;SDS011;23548;51.196;6.838;2023-07-29T10:14:18;1.95;;;1.40;;
37701;SDS011;23548;51.196;6.838;2023-07-29T10:16:45;4.22;;;1.60;;
37701;SDS011;23548;51.196;6.838;2023-07-29T10:19:11;4.35;;;1.83;;
37701;SDS011;23548;51.196;6.838;2023-07-29T10:21:39;3.53;;;1.77;;
37701;SDS011;23548;51.196;6.838;2023-07-29T10:24:14;2.65;;;1.90;;
37701;SDS011;23548;51.196;6.838;2023-07-29T10:26:45;2.85;;;1.73;;
37701;SDS011;23548;51.196;6.838;2023-07-29T10:29:13;2.78;;;1.75;;
37701;SDS011;23548;51.196;6.838;2023-07-29T10:31:43;3.17;;;1.80;;
37701;SDS011;23548;51.196;6.838;2023-07-29T10:34:10;3.72;;;2.15;;
37701;SDS011;23548;51.196;6.838;2023-07-29T10:36:37;3.90;;;1.80;;
37701;SDS011;23548;51.196;6.838;2023-07-29T10:39:03;4.82;;;2.58;;
37701;SDS011;23548;51.196;6.838;2023-07-29T10:41:55;3.45;;;2.15;;
37701;SDS011;23548;51.196;6.838;2023-07-29T10:47:24;6.72;;;2.05;;
37701;SDS011;23548;51.196;6.838;2023-07-29T10:49:56;2.28;;;1.75;;
37701;SDS011;23548;51.196;6.838;2023-07-29T10:55:01;4.10;;;1.88;;
37701;SDS011;23548;51.196;6.838;2023-07-29T10:57:38;6.40;;;1.60;;
37701;SDS011;23548;51.196;6.838;2023-07-29T11:00:06;4.63;;;1.67;;
37701;SDS011;23548;51.196;6.838;2023-07-29T11:02:36;4.22;;;1.60;;
37701;SDS011;23548;51.196;6.838;2023-07-29T11:05:16;2.58;;;1.60;;
37701;SDS011;23548;51.196;6.838;2023-07-29T11:07:43;2.10;;;1.73;;
37701;SDS011;23548;51.196;6.838;2023-07-29T11:10:11;2.08;;;1.33;;
37701;SDS011;23548;51.196;6.838;2023-07-29T11:12:47;4.13;;;1.20;;
37701;SDS011;23548;51.196;6.838;2023-07-29T11:20:30;6.28;;;1.55;;
37701;SDS011;23548;51.196;6.838;2023-07-29T11:22:58;2.10;;;1.65;;
37701;SDS011;23548;51.196;6.838;2023-07-29T11:25:26;2.85;;;1.77;;
37701;SDS011;23548;51.196;6.838;2023-07-29T11:27:54;3.47;;;1.52;;
37701;SDS011;23548;51.196;6.838;2023-07-29T11:30:22;2.30;;;1.58;;
37701;SDS011;23548;51.196;6.838;2023-07-29T11:32:48;3.30;;;1.83;;
37701;SDS011;23548;51.196;6.838;2023-07-29T11:35:15;2.42;;;1.70;;
37701;SDS011;23548;51.196;6.838;2023-07-29T11:37:44;5.55;;;1.80;;
37701;SDS011;23548;51.196;6.838;2023-07-29T11:40:15;1.98;;;1.50;;
37701;SDS011;23548;51.196;6.838;2023-07-29T11:42:46;1.90;;;1.70;;
37701;SDS011;23548;51.196;6.838;2023-07-29T11:45:15;6.60;;;1.65;;
37701;SDS011;23548;51.196;6.838;2023-07-29T11:47:41;3.75;;;1.90;;
37701;SDS011;23548;51.196;6.838;2023-07-29T11:50:08;2.50;;;1.77;;
37701;SDS011;23548;51.196;6.838;2023-07-29T11:52:36;4.22;;;1.70;;
37701;SDS011;23548;51.196;6.838;2023-07-29T11:55:03;2.15;;;1.58;;
37701;SDS011;23548;51.196;6.838;2023-07-29T11:57:35;3.58;;;1.90;;
37701;SDS011;23548;51.196;6.838;2023-07-29T12:00:06;2.17;;;1.55;;
37701;SDS011;23548;51.196;6.838;2023-07-29T12:02:38;13.45;;;2.15;;
37701;SDS011;23548;51.196;6.838;2023-07-29T12:05:05;4.32;;;2.10;;
37701;SDS011;23548;51.196;6.838;2023-07-29T12:07:32;3.20;;;1.73;;
37701;SDS011;23548;51.196;6.838;2023-07-29T12:10:02;5.22;;;2.05;;
37701;SDS011;23548;51.196;6.838;2023-07-29T12:12:28;3.42;;;2.10;;
37701;SDS011;23548;51.196;6.838;2023-07-29T12:14:54;2.90;;;1.75;;
37701;SDS011;23548;51.196;6.838;2023-07-29T12:17:20;6.38;;;2.13;;
37701;SDS011;23548;51.196;6.838;2023-07-29T12:19:46;3.25;;;2.10;;
37701;SDS011;23548;51.196;6.838;2023-07-29T12:22:17;3.25;;;1.35;;
37701;SDS011;23548;51.196;6.838;2023-07-29T12:24:44;3.38;;;1.88;;
37701;SDS011;23548;51.196;6.838;2023-07-29T12:27:10;3.50;;;1.55;;
37701;SDS011;23548;51.196;6.838;2023-07-29T12:29:44;6.78;;;1.67;;
37701;SDS011;23548;51.196;6.838;2023-07-29T12:32:11;2.10;;;1.63;;
37701;SDS011;23548;51.196;6.838;2023-07-29T12:34:38;3.95;;;1.40;;
37701;SDS011;23548;51.196;6.838;2023-07-29T12:37:06;2.28;;;1.75;;
37701;SDS011;23548;51.196;6.838;2023-07-29T12:39:33;1.80;;;1.70;;
37701;SDS011;23548;51.196;6.838;2023-07-29T12:42:04;2.30;;;1.92;;
37701;SDS011;23548;51.196;6.838;2023-07-29T12:44:32;1.73;;;1.55;;
37701;SDS011;23548;51.196;6.838;2023-07-29T12:47:00;2.22;;;1.90;;
37701;SDS011;23548;51.196;6.838;2023-07-29T12:49:27;3.10;;;2.22;;
37701;SDS011;23548;51.196;6.838;2023-07-29T12:51:54;2.47;;;1.77;;
37701;SDS011;23548;51.196;6.838;2023-07-29T12:54:24;2.67;;;1.80;;
37701;SDS011;23548;51.196;6.838;2023-07-29T12:56:50;3.13;;;2.55;;
37701;SDS011;23548;51.196;6.838;2023-07-29T12:59:16;2.92;;;1.95;;
37701;SDS011;23548;51.196;6.838;2023-07-29T13:01:42;2.42;;;1.70;;
37701;SDS011;23548;51.196;6.838;2023-07-29T13:04:09;2.53;;;1.90;;
37701;SDS011;23548;51.196;6.838;2023-07-29T13:06:35;2.75;;;1.80;;
37701;SDS011;23548;51.196;6.838;2023-07-29T13:09:02;2.30;;;1.70;;
37701;SDS011;23548;51.196;6.838;2023-07-29T13:11:28;5.10;;;2.63;;
37701;SDS011;23548;51.196;6.838;2023-07-29T13:13:54;2.75;;;1.63;;
37701;SDS011;23548;51.196;6.838;2023-07-29T13:16:20;4.13;;;2.05;;
37701;SDS011;23548;51.196;6.838;2023-07-29T13:18:46;2.53;;;1.70;;
37701;SDS011;23548;51.196;6.838;2023-07-29T13:21:12;2.20;;;1.80;;
37701;SDS011;23548;51.196;6.838;2023-07-29T13:23:37;3.83;;;1.92;;
37701;SDS011;23548;51.196;6.838;2023-07-29T13:26:03;3.30;;;2.30;;
37701;SDS011;23548;51.196;6.838;2023-07-29T13:28:30;2.88;;;2.38;;
37701;SDS011;23548;51.196;6.838;2023-07-29T13:30:56;2.92;;;2.08;;
37701;SDS011;23548;51.196;6.838;2023-07-29T13:33:22;3.67;;;2.08;;
37701;SDS011;23548;51.196;6.838;2023-07-29T13:35:47;3.40;;;2.40;;
37701;SDS011;23548;51.196;6.838;2023-07-29T13:38:13;6.97;;;2.50;;
37701;SDS011;23548;51.196;6.838;2023-07-29T13:40:39;4.10;;;2.25;;
37701;SDS011;23548;51.196;6.838;2023-07-29T13:43:05;2.38;;;1.90;;
37701;SDS011;23548;51.196;6.838;2023-07-29T13:45:31;2.67;;;2.10;;
37701;SDS011;23548;51.196;6.838;2023-07-29T13:47:56;2.28;;;2.00;;
37701;SDS011;23548;51.196;6.838;2023-07-29T13:50:23;2.72;;;2.00;;
37701;SDS011;23548;51.196;6.838;2023-07-29T13:52:48;2.20;;;2.00;;
37701;SDS011;23548;51.196;6.838;2023-07-29T13:55:14;2.70;;;1.95;;
37701;SDS011;23548;51.196;6.838;2023-07-29T13:57:42;2.95;;;2.03;;
37701;SDS011;23548;51.196;6.838;2023-07-29T14:00:11;4.13;;;2.25;;
37701;SDS011;23548;51.196;6.838;2023-07-29T14:02:37;3.40;;;2.20;;
37701;SDS011;23548;51.196;6.838;2023-07-29T14:05:03;3.47;;;2.40;;
37701;SDS011;23548;51.196;6.838;2023-07-29T14:07:30;2.80;;;2.50;;
37701;SDS011;23548;51.196;6.838;2023-07-29T14:09:56;5.85;;;4.13;;
37701;SDS011;23548;51.196;6.838;2023-07-29T14:12:21;5.22;;;2.70;;
37701;SDS011;23548;51.196;6.838;2023-07-29T14:14:47;4.10;;;2.72;;
37701;SDS011;23548;51.196;6.838;2023-07-29T14:17:13;4.95;;;2.65;;
37701;SDS011;23548;51.196;6.838;2023-07-29T14:19:39;4.13;;;2.72;;
37701;SDS011;23548;51.196;6.838;2023-07-29T14:22:05;4.32;;;2.63;;
37701;SDS011;23548;51.196;6.838;2023-07-29T14:24:31;3.97;;;2.15;;
37701;SDS011;23548;51.196;6.838;2023-07-29T14:26:56;3.92;;;2.20;;
37701;SDS011;23548;51.196;6.838;2023-07-29T14:29:22;4.75;;;2.30;;
37701;SDS011;23548;51.196;6.838;2023-07-29T14:31:48;2.53;;;2.22;;
37701;SDS011;23548;51.196;6.838;2023-07-29T14:34:14;5.10;;;2.50;;
37701;SDS011;23548;51.196;6.838;2023-07-29T14:36:40;4.00;;;2.55;;
37701;SDS011;23548;51.196;6.838;2023-07-29T14:39:05;2.55;;;2.35;;
37701;SDS011;23548;51.196;6.838;2023-07-29T14:41:31;3.00;;;2.08;;
37701;SDS011;23548;51.196;6.838;2023-07-29T14:43:57;2.90;;;2.08;;
37701;SDS011;23548;51.196;6.838;2023-07-29T14:46:23;3.08;;;1.95;;
37701;SDS011;23548;51.196;6.838;2023-07-29T14:48:48;2.15;;;1.95;;
37701;SDS011;23548;51.196;6.838;2023-07-29T14:51:14;5.32;;;2.10;;
37701;SDS011;23548;51.196;6.838;2023-07-29T14:53:40;2.35;;;1.98;;
37701;SDS011;23548;51.196;6.838;2023-07-29T14:56:06;2.20;;;2.00;;
37701;SDS011;23548;51.196;6.838;2023-07-29T14:58:32;2.15;;;1.90;;
37701;SDS011;23548;51.196;6.838;2023-07-29T15:00:57;2.58;;;2.28;;
37701;SDS011;23548;51.196;6.838;2023-07-29T15:03:23;2.80;;;2.03;;
37701;SDS011;23548;51.196;6.838;2023-07-29T15:05:50;2.00;;;1.80;;